Wetterdaten: aktuell Sonntag, 06.09.2026 05:20
Datum Zeit Arbeit-Z. Temp. A. Bod.+5cm Temp. A. min Temp. A. max Bl.Temp +1m BTemp -5cm BTemp -10cm BTemp -20cm BTemp -50cm Feuchte I. Feuchte A. BlattFeu +1m BFeucht -5cm BFeucht-10cm BFeucht-20cm BFeucht-50cm Luftdruck Regen Wind Richtung Richtung Sonnenschein ET UV Solar Taupunkt Windchill Windböen Empfang
06.09.2026 05:20 25,8 °C 13,3 °C 11,7 °C 13,3 °C 13,6 °C 17,2 °C 17,2 °C 20,0 °C 20,6 °C 20,6 °C 44 % 78 % 0 lf 200 cb 200 cb 200 cb 124 cb 1023,8 hPa 0,0 l/m² 1,2 km/h (1 Bft) SO 135 ° 0 min 0,025 mm 0,0 UV-I 0 W/m² 9,5 °C 13,3 °C 4,8 km/h (1 Bft) 95,37 %
06.09.2026 04:20 25,9 °C 14,1 °C 12,2 °C 14,1 °C 14,2 °C 17,8 °C 17,8 °C 20,0 °C 20,6 °C 20,6 °C 44 % 76 % 0 lf 200 cb 200 cb 200 cb 124 cb 1023,8 hPa 0,0 l/m² 0,7 km/h (0 Bft) S-SO 162 ° 0 min 0,026 mm 0,0 UV-I 0 W/m² 9,9 °C 14,1 °C 3,2 km/h (1 Bft) 94,64 %
06.09.2026 03:20 25,9 °C 14,5 °C 12,8 °C 14,4 °C 14,5 °C 17,8 °C 17,8 °C 20,6 °C 20,6 °C 20,6 °C 44 % 74 % 0 lf 200 cb 200 cb 200 cb 123 cb 1023,7 hPa 0,0 l/m² 2,1 km/h (1 Bft) SW 228 ° 0 min 0,025 mm 0,0 UV-I 0 W/m² 9,9 °C 14,5 °C 4,8 km/h (1 Bft) 94,78 %
06.09.2026 02:20 26,0 °C 14,7 °C 13,3 °C 14,7 °C 14,8 °C 18,3 °C 18,3 °C 20,6 °C 21,1 °C 20,6 °C 44 % 75 % 0 lf 200 cb 200 cb 200 cb 123 cb 1023,7 hPa 0,0 l/m² 1,3 km/h (1 Bft) SO 141 ° 0 min 0,026 mm 0,0 UV-I 0 W/m² 10,3 °C 14,7 °C 3,2 km/h (1 Bft) 94,12 %
06.09.2026 01:20 26,1 °C 15,4 °C 13,9 °C 15,4 °C 15,4 °C 18,3 °C 18,3 °C 20,6 °C 21,1 °C 20,6 °C 45 % 72 % 0 lf 200 cb 200 cb 200 cb 123 cb 1023,6 hPa 0,0 l/m² 0,3 km/h (0 Bft) S-SO 159 ° 0 min 0,025 mm 0,0 UV-I 0 W/m² 10,4 °C 15,4 °C 3,2 km/h (1 Bft) 99,09 %
06.09.2026 00:20 26,1 °C 16,1 °C 13,9 °C 16,1 °C 16,2 °C 18,9 °C 18,9 °C 21,1 °C 21,1 °C 20,6 °C 45 % 72 % 0 lf 200 cb 200 cb 200 cb 123 cb 1023,2 hPa 0,0 l/m² 1,4 km/h (1 Bft) O-SO 109 ° 0 min 0,000 mm 0,0 UV-I 0 W/m² 11,0 °C 16,1 °C 4,8 km/h (1 Bft) 98,37 %
05.09.2026 23:20 26,1 °C 16,6 °C 15,0 °C 16,6 °C 17,0 °C 19,4 °C 19,4 °C 21,1 °C 21,1 °C 20,6 °C 45 % 72 % 0 lf 200 cb 200 cb 200 cb 123 cb 1022,9 hPa 0,0 l/m² 0,4 km/h (0 Bft) S-SW 205 ° 0 min 0,026 mm 0,0 UV-I 0 W/m² 11,5 °C 16,6 °C 3,2 km/h (1 Bft) 96,77 %
05.09.2026 22:20 26,1 °C 16,7 °C 14,4 °C 16,4 °C 16,7 °C 19,4 °C 19,4 °C 21,1 °C 21,1 °C 21,1 °C 45 % 73 % 0 lf 200 cb 200 cb 200 cb 124 cb 1022,2 hPa 0,0 l/m² 1,8 km/h (1 Bft) SO 125 ° 0 min 0,025 mm 0,0 UV-I 0 W/m² 11,8 °C 16,7 °C 4,8 km/h (1 Bft) 95,73 %
05.09.2026 21:20 26,2 °C 18,1 °C 16,7 °C 18,1 °C 18,3 °C 20,0 °C 20,0 °C 21,1 °C 21,1 °C 21,1 °C 44 % 70 % 0 lf 200 cb 200 cb 200 cb 123 cb 1021,6 hPa 0,0 l/m² 0,1 km/h (0 Bft) S 182 ° 0 min 0,000 mm 0,0 UV-I 0 W/m² 12,5 °C 18,1 °C 1,6 km/h (1 Bft) 95,00 %
05.09.2026 20:20 26,4 °C 21,1 °C 18,3 °C 21,1 °C 21,4 °C 20,6 °C 20,6 °C 21,7 °C 21,1 °C 21,1 °C 43 % 60 % 0 lf 200 cb 200 cb 200 cb 123 cb 1020,9 hPa 0,0 l/m² 0,0 km/h (0 Bft) W-SW 240 ° 0 min 0,001 mm 0,0 UV-I 0 W/m² 13,0 °C 21,1 °C 0,0 km/h (0 Bft) 95,45 %
05.09.2026 19:20 26,6 °C 24,8 °C 22,8 °C 24,8 °C 25,0 °C 20,6 °C 20,6 °C 21,7 °C 21,1 °C 21,1 °C 42 % 44 % 0 lf 200 cb 200 cb 200 cb 123 cb 1020,2 hPa 0,0 l/m² 3,6 km/h (1 Bft) NW 317 ° 0 min 0,076 mm 0,0 UV-I 16 W/m² 11,7 °C 24,8 °C 9,7 km/h (2 Bft) 96,58 %
05.09.2026 18:20 26,6 °C 25,8 °C 25,0 °C 25,8 °C 26,1 °C 21,1 °C 21,1 °C 21,7 °C 21,1 °C 21,1 °C 39 % 43 % 0 lf 200 cb 200 cb 200 cb 123 cb 1019,7 hPa 0,0 l/m² 5,2 km/h (1 Bft) W 263 ° 15 min 0,228 mm 0,0 UV-I 49 W/m² 12,3 °C 25,8 °C 14,5 km/h (3 Bft) 92,17 %
05.09.2026 17:20 26,2 °C 26,8 °C 31,7 °C 26,8 °C 27,0 °C 21,1 °C 21,1 °C 21,7 °C 21,1 °C 21,1 °C 41 % 42 % 0 lf 200 cb 200 cb 200 cb 123 cb 1019,7 hPa 0,0 l/m² 5,1 km/h (1 Bft) SW 229 ° 60 min 0,407 mm 1,2 UV-I 408 W/m² 12,8 °C 26,8 °C 12,9 km/h (3 Bft) 95,37 %
05.09.2026 16:20 25,9 °C 26,8 °C 26,7 °C 26,8 °C 26,9 °C 21,7 °C 21,7 °C 21,7 °C 21,1 °C 21,1 °C 42 % 42 % 0 lf 200 cb 200 cb 200 cb 123 cb 1019,6 hPa 0,0 l/m² 8,4 km/h (2 Bft) NW 319 ° 60 min 0,457 mm 2,2 UV-I 543 W/m² 12,8 °C 26,4 °C 17,7 km/h (3 Bft) 98,29 %
05.09.2026 15:20 25,8 °C 26,8 °C 26,1 °C 26,3 °C 26,8 °C 22,2 °C 22,2 °C 21,7 °C 21,1 °C 21,1 °C 44 % 48 % 0 lf 200 cb 200 cb 200 cb 123 cb 1019,8 hPa 0,0 l/m² 5,6 km/h (1 Bft) NW 313 ° 60 min 0,483 mm 3,2 UV-I 638 W/m² 14,9 °C 26,8 °C 14,5 km/h (3 Bft) 99,08 %
05.09.2026 14:20 25,7 °C 25,5 °C 24,4 °C 25,5 °C 25,8 °C 22,2 °C 22,2 °C 21,7 °C 21,1 °C 21,1 °C 45 % 50 % 0 lf 200 cb 200 cb 200 cb 122 cb 1019,9 hPa 0,0 l/m² 5,6 km/h (1 Bft) N 11 ° 60 min 0,482 mm 3,9 UV-I 679 W/m² 14,3 °C 25,5 °C 14,5 km/h (3 Bft) 93,91 %
05.09.2026 13:20 25,5 °C 24,8 °C 22,8 °C 24,4 °C 24,8 °C 21,7 °C 21,7 °C 21,1 °C 21,1 °C 21,1 °C 46 % 58 % 0 lf 200 cb 200 cb 200 cb 122 cb 1019,9 hPa 0,0 l/m² 6,9 km/h (2 Bft) N-NW 338 ° 55 min 0,305 mm 4,1 UV-I 728 W/m² 16,0 °C 24,7 °C 17,7 km/h (3 Bft) 97,44 %
05.09.2026 12:20 25,7 °C 22,9 °C 22,2 °C 22,2 °C 22,9 °C 21,1 °C 21,1 °C 21,1 °C 21,1 °C 21,1 °C 50 % 67 % 0 lf 200 cb 200 cb 200 cb 122 cb 1020,0 hPa 0,0 l/m² 3,4 km/h (1 Bft) S 190 ° 55 min 0,229 mm 3,6 UV-I 744 W/m² 16,4 °C 22,9 °C 8,0 km/h (2 Bft) 97,37 %
05.09.2026 11:20 25,6 °C 21,6 °C 20,0 °C 21,4 °C 21,6 °C 20,6 °C 20,6 °C 21,1 °C 21,7 °C 21,1 °C 50 % 77 % 0 lf 200 cb 200 cb 200 cb 123 cb 1020,0 hPa 0,0 l/m² 2,8 km/h (1 Bft) NO 51 ° 50 min 0,203 mm 1,6 UV-I 176 W/m² 17,4 °C 21,6 °C 6,4 km/h (2 Bft) 94,87 %
05.09.2026 10:20 25,2 °C 20,6 °C 18,9 °C 20,6 °C 20,7 °C 20,0 °C 20,0 °C 21,1 °C 21,7 °C 20,6 °C 51 % 80 % 0 lf 200 cb 200 cb 200 cb 122 cb 1019,5 hPa 0,0 l/m² 4,8 km/h (1 Bft) N-NW 348 ° 30 min 0,127 mm 1,1 UV-I 134 W/m² 17,0 °C 20,6 °C 16,1 km/h (3 Bft) 97,30 %
05.09.2026 09:20 25,1 °C 18,8 °C 18,9 °C 18,7 °C 18,9 °C 20,0 °C 20,0 °C 21,7 °C 21,7 °C 20,6 °C 50 % 79 % 0 lf 200 cb 200 cb 200 cb 123 cb 1019,0 hPa 0,0 l/m² 3,6 km/h (1 Bft) SO 138 ° 35 min 0,051 mm 0,9 UV-I 359 W/m² 15,1 °C 18,8 °C 9,7 km/h (2 Bft) 94,02 %
05.09.2026 08:20 25,9 °C 16,8 °C 15,6 °C 16,7 °C 16,8 °C 20,0 °C 20,0 °C 21,7 °C 21,7 °C 20,6 °C 47 % 84 % 0 lf 200 cb 200 cb 200 cb 124 cb 1018,6 hPa 0,0 l/m² 3,6 km/h (1 Bft) SO 127 ° 0 min 0,025 mm 0,0 UV-I 111 W/m² 14,1 °C 16,8 °C 6,4 km/h (2 Bft) 92,86 %
05.09.2026 07:20 26,1 °C 16,2 °C 14,4 °C 16,1 °C 16,2 °C 20,6 °C 20,6 °C 22,2 °C 21,7 °C 20,6 °C 48 % 86 % 13 lf 200 cb 200 cb 200 cb 125 cb 1017,8 hPa 0,0 l/m² 1,8 km/h (1 Bft) W-SW 255 ° 0 min 0,025 mm 0,0 UV-I 16 W/m² 13,9 °C 16,2 °C 8,0 km/h (2 Bft) 97,46 %
05.09.2026 06:20 26,2 °C 16,3 °C 13,9 °C 16,3 °C 16,3 °C 21,1 °C 21,1 °C 22,2 °C 21,7 °C 20,6 °C 48 % 83 % 3 lf 200 cb 200 cb 200 cb 127 cb 1016,9 hPa 0,0 l/m² 7,3 km/h (2 Bft) SO 137 ° 0 min 0,026 mm 0,0 UV-I 0 W/m² 13,4 °C 15,8 °C 14,5 km/h (3 Bft) 90,68 %
05.09.2026 06:00 26,2 °C 16,4 °C 13,9 °C 16,4 °C 16,4 °C 21,1 °C 21,1 °C 22,2 °C 21,7 °C 20,6 °C 48 % 83 % 14 lf 200 cb 200 cb 200 cb 127 cb 1016,7 hPa 0,0 l/m² 7,3 km/h (2 Bft) O-SO 105 ° 0 min 0,026 mm 0,0 UV-I 0 W/m² 13,5 °C 15,9 °C 19,3 km/h (3 Bft) 95,04 %
_ Min-Zeit 09:30 05:20 04:55 05:20 05:00 05:10 05:10 03:30 02:30 06:00 17:45 16:05 06:45 06:00 06:00 06:00 09:35 06:00 - 19:50 - - - - - - 05:20 05:20 19:50 06:25
Minimum _ 25,0 °C 13,3 °C 11,7 °C 13,3 °C 13,6 °C 17,2 °C 17,2 °C 20,0 °C 20,6 °C 20,6 °C 39 % 41 % 0 lf 200 cb 200 cb 200 cb 122 cb 1016,7 hPa - 0,0 km/h (0 Bft) - - - - - - 9,5 °C 13,3 °C 0,0 km/h (0 Bft) 87,72 %
_ Max-Zeit 18:35 16:35 17:25 17:05 16:35 13:25 13:25 06:00 06:00 10:10 09:50 07:20 06:00 06:00 06:00 06:00 06:00 03:55 06:00 13:35 - - 08:45 15:00 13:40 12:40 11:00 16:35 13:10 07:55
Maximum _ 26,7 °C 27,3 °C 33,9 °C 26,9 °C 27,3 °C 22,2 °C 22,2 °C 22,2 °C 21,7 °C 21,1 °C 51 % 86 % 14 lf 200 cb 200 cb 200 cb 127 cb 1023,9 hPa 0,0 l/m² 11,3 km/h
N (2 Bft)
- - 5 min 0,483 mm 4,2 UV-I 791 W/m² 18,6 °C 27,2 °C 30,6 km/h
N-NO (5 Bft)
100,00 %
Durchschnitt _ 26,0 °C 19,7 °C 18,3 °C 19,6 °C 19,8 °C 20,2 °C 20,2 °C 21,3 °C 21,2 °C 20,8 °C 45 % 68 % 2 lf 200 cb 200 cb 200 cb 123 cb 1020,5 hPa #0,0 l/m² 3,2 km/h (1 Bft) SW - #0 min. #0,127 mm 0,0 UV-I 0 W/m² 13,1 °C 19,6 °C 9,4 km/h (2 Bft) 95,38 %
copy; 2009 Dieter Kraft